Погода Гарсана неделю

Сан-Паулу, Бразилия

23 - 29 июля
  • 23июля
    Сегодня
    +16°
    +29°
    Ясно и безоблачно
    ВремяПогодаТемператураВлажностьДавлениеВетер, м/сВероятность осадков
    00:00Ясно и безоблачно+19°C59 %714 мм3.1 м/с5 %
    03:00Ясно и безоблачно+18°C65 %714 мм3.5 м/с5 %
    06:00Ясно и безоблачно+17°C63 %714 мм3.3 м/с5 %
    09:00Ясно и безоблачно+21°C55 %716 мм3.0 м/с5 %
    12:00Ясно и безоблачно+25°C38 %716 мм3.1 м/с5 %
    15:00Ясно и безоблачно+28°C28 %715 мм2.1 м/с5 %
    18:00Ясно и безоблачно+25°C48 %714 мм1.8 м/с5 %
    21:00Ясно и безоблачно+22°C43 %714 мм3.1 м/с5 %
  • 24июля
    Среда
    +17°
    +30°
    Облачно с прояснениями
    ВремяПогодаТемператураВлажностьДавлениеВетер, м/сВероятность осадков
    00:00Ясно и безоблачно+19°C45 %715 мм3.7 м/с5 %
    03:00Практически безоблачно+16°C53 %713 мм3.7 м/с5 %
    06:00Ясно и безоблачно+17°C61 %713 мм3.6 м/с5 %
    09:00Практически безоблачно+21°C52 %716 мм3.3 м/с5 %
    12:00Небольшая облачность+26°C35 %716 мм3.0 м/с5 %
    15:00Облачно с прояснениями+29°C26 %714 мм2.2 м/с5 %
    18:00Небольшая облачность+25°C49 %714 мм1.8 м/с5 %
    21:00Облачно с прояснениями+23°C49 %714 мм2.4 м/с5 %
  • 25июля
    Четверг
    +18°
    +31°
    Ясно и безоблачно
    ВремяПогодаТемператураВлажностьДавлениеВетер, м/сВероятность осадков
    00:00Практически безоблачно+20°C44 %714 мм3.1 м/с5 %
    03:00Ясно и безоблачно+18°C52 %713 мм3.0 м/с5 %
    06:00Ясно и безоблачно+18°C56 %713 мм2.8 м/с5 %
    09:00Ясно и безоблачно+22°C49 %715 мм2.5 м/с5 %
    12:00Ясно и безоблачно+27°C34 %715 мм2.7 м/с5 %
    15:00Ясно и безоблачно+30°C26 %712 мм1.1 м/с5 %
    18:00Ясно и безоблачно+26°C44 %712 мм1.6 м/с5 %
    21:00Ясно и безоблачно+23°C54 %712 мм2.4 м/с5 %
  • 26июля
    Пятница
    +18°
    +30°
    Облачно с прояснениями
    ВремяПогодаТемператураВлажностьДавлениеВетер, м/сВероятность осадков
    00:00Ясно и безоблачно+21°C48 %712 мм2.2 м/с5 %
    03:00Ясно и безоблачно+19°C52 %711 мм2.8 м/с5 %
    06:00Облачно с прояснениями+19°C55 %711 мм2.8 м/с5 %
    09:00Облачно с прояснениями+22°C49 %713 мм2.7 м/с5 %
    12:00Облачно с прояснениями+27°C32 %714 мм2.6 м/с5 %
    15:00Облачно с прояснениями+30°C27 %712 мм1.8 м/с5 %
    18:00Облачно с прояснениями+26°C41 %712 мм2.2 м/с5 %
    21:00Облачно с прояснениями+24°C47 %712 мм2.4 м/с5 %
  • 27июля
    Суббота
    +19°
    +31°
    Ясно и безоблачно
    ВремяПогодаТемператураВлажностьДавлениеВетер, м/сВероятность осадков
    00:00Облачно с прояснениями+21°C45 %712 мм2.7 м/с5 %
    03:00Облачно с прояснениями+19°C49 %711 мм2.8 м/с5 %
    06:00Облачно с прояснениями+19°C57 %711 мм3.2 м/с5 %
    09:00Небольшая облачность+23°C51 %713 мм2.8 м/с5 %
    12:00Практически безоблачно+28°C31 %714 мм3.0 м/с5 %
    15:00Ясно и безоблачно+31°C26 %712 мм2.1 м/с5 %
    18:00Ясно и безоблачно+28°C39 %712 мм1.7 м/с5 %
    21:00Ясно и безоблачно+24°C48 %712 мм2.1 м/с5 %
Мы используем cookies
Соглашаюсь